< Typhoon 198103 1981 Season Typhoon 198105 >
Typhoon 198104 (IKE)
General InformationTrack Information on Google MapsDetailed Wind InformationList of All Images || Disaster Info.ResourceGoogle EarthGE AnimationAtom FeedGeoJSON
Detalied Best Track (Time Zone = UTC)
Year Month Day Hour Lat. Long. Pressure (hPa) Wind (kt) Class Image Chart
1981 6 8 12 18.0 115.0 1000 0 2 Image Chart
1981 6 8 18 18.0 113.5 1000 0 2 Image Chart
1981 6 9 00 17.7 112.5 1000 35 3 Image Chart
1981 6 9 06 17.5 112.0 998 35 3 Image Chart
1981 6 9 12 17.4 111.7 996 35 3 Image Chart
1981 6 9 18 17.3 111.4 994 35 3 Image Chart
1981 6 10 00 17.3 111.2 994 40 3 Image Chart
1981 6 10 06 17.5 111.1 994 40 3 Image Chart
1981 6 10 12 17.6 111.3 994 40 3 Image Chart
1981 6 10 18 17.7 111.4 994 40 3 Image Chart
1981 6 11 00 17.8 111.5 990 40 3 Image Chart
1981 6 11 06 18.0 112.0 985 45 3 Image Chart
1981 6 11 12 18.4 112.9 980 45 3 Image Chart
1981 6 11 18 18.8 113.9 980 45 3 Image Chart
1981 6 12 00 19.2 115.0 975 45 3 Image Chart
1981 6 12 06 19.9 116.2 975 55 4 Image Chart
1981 6 12 12 20.6 117.5 975 55 4 Image Chart
1981 6 12 18 21.3 118.7 970 60 4 Image Chart
1981 6 13 00 22.0 120.0 965 60 4 Image Chart
1981 6 13 06 22.7 121.4 970 60 4 Image Chart
1981 6 13 12 24.3 122.4 980 55 4 Image Chart
1981 6 13 18 25.7 122.7 980 55 4 Image Chart
1981 6 14 00 26.5 123.1 985 50 4 Image Chart
1981 6 14 06 27.3 123.3 990 45 3 Image Chart
1981 6 14 12 27.7 123.8 994 40 3 Image Chart
1981 6 14 18 27.9 124.9 998 0 2 Image Chart
1981 6 15 00 28.0 126.0 1000 0 2 Image Chart
1981 6 15 06 28.6 126.2 1000 0 2 Image Chart
1981 6 15 12 29.2 126.5 1002 0 2 Image Chart
1981 6 15 18 29.8 126.7 1002 0 2 Image Chart
1981 6 16 00 30.1 126.9 1004 0 2 Image Chart
1981 6 16 06 30.7 127.0 1004 0 2 Image Chart
1981 6 16 12 31.5 127.0 1006 0 2 Image Chart
1981 6 16 18 32.2 127.0 1006 0 2 Image Chart
1981 6 17 00 33.0 127.0 1008 0 2 Image Chart
1981 6 17 06 34.0 128.0 1006 0 2 Image Chart
Japan Meteorological Agency Best Track Data | Correction Date : 1992-10-21
< Typhoon 198103 1981 Season Typhoon 198105 >

Help